Map

Track Data

SID SEASON NUMBER BASIN SUBBASIN NAME ISO_TIME NATURE LAT LON WMO_WIND WMO_PRES WMO_AGENCY TRACK_TYPE DIST2LAND LANDFALL IFLAG USA_AGENCY USA_ATCF_ID USA_LAT USA_LON USA_RECORD USA_STATUS USA_WIND USA_PRES USA_SSHS USA_R34_NE USA_R34_SE USA_R34_SW USA_R34_NW USA_R50_NE USA_R50_SE USA_R50_SW USA_R50_NW USA_R64_NE USA_R64_SE USA_R64_SW USA_R64_NW USA_POCI USA_ROCI USA_RMW USA_EYE TOKYO_LAT TOKYO_LON TOKYO_GRADE TOKYO_WIND TOKYO_PRES TOKYO_R50_DIR TOKYO_R50_LONG TOKYO_R50_SHORT TOKYO_R30_DIR TOKYO_R30_LONG TOKYO_R30_SHORT TOKYO_LAND CMA_LAT CMA_LON CMA_CAT CMA_WIND CMA_PRES HKO_LAT HKO_LON HKO_CAT HKO_WIND HKO_PRES NEWDELHI_LAT NEWDELHI_LON NEWDELHI_GRADE NEWDELHI_WIND NEWDELHI_PRES NEWDELHI_CI NEWDELHI_DP NEWDELHI_POCI REUNION_LAT REUNION_LON REUNION_TYPE REUNION_WIND REUNION_PRES REUNION_TNUM REUNION_CI REUNION_RMW REUNION_R34_NE REUNION_R34_SE REUNION_R34_SW REUNION_R34_NW REUNION_R50_NE REUNION_R50_SE REUNION_R50_SW REUNION_R50_NW REUNION_R64_NE REUNION_R64_SE REUNION_R64_SW REUNION_R64_NW BOM_LAT BOM_LON BOM_TYPE BOM_WIND BOM_PRES BOM_TNUM BOM_CI BOM_RMW BOM_R34_NE BOM_R34_SE BOM_R34_SW BOM_R34_NW BOM_R50_NE BOM_R50_SE BOM_R50_SW BOM_R50_NW BOM_R64_NE BOM_R64_SE BOM_R64_SW BOM_R64_NW BOM_ROCI BOM_POCI BOM_EYE BOM_POS_METHOD BOM_PRES_METHOD NADI_LAT NADI_LON NADI_CAT NADI_WIND NADI_PRES WELLINGTON_LAT WELLINGTON_LON WELLINGTON_WIND WELLINGTON_PRES DS824_LAT DS824_LON DS824_STAGE DS824_WIND DS824_PRES TD9636_LAT TD9636_LON TD9636_STAGE TD9636_WIND TD9636_PRES TD9635_LAT TD9635_LON TD9635_WIND TD9635_PRES TD9635_ROCI NEUMANN_LAT NEUMANN_LON NEUMANN_CLASS NEUMANN_WIND NEUMANN_PRES MLC_LAT MLC_LON MLC_CLASS MLC_WIND MLC_PRES USA_GUST BOM_GUST BOM_GUST_PER REUNION_GUST REUNION_GUST_PER USA_SEAHGT USA_SEARAD_NE USA_SEARAD_SE USA_SEARAD_SW USA_SEARAD_NW STORM_SPEED STORM_DIR
1953266N16092 1953 58 NI BB NOT_NAMED 1953-09-22 18:00:00 TS 15.7000 91.6000 main 280 280 O________O____ jtwc_io IO071953 15.7000 91.6000 -1 15.7000 91.6000 TC 2 297
1953266N16092 1953 58 NI BB NOT_NAMED 1953-09-22 21:00:00 TS 15.7400 91.5200 main 290 289 P________P____ IO071953 15.7400 91.5200 -1 15.7400 91.5200 TC 2 297
1953266N16092 1953 58 NI BB NOT_NAMED 1953-09-23 00:00:00 TS 15.8000 91.4000 main 300 300 O________O____ jtwc_io IO071953 15.8000 91.4000 -1 15.8000 91.4000 TC 25 3 297
1953266N16092 1953 58 NI BB NOT_NAMED 1953-09-23 03:00:00 TS 15.8933 91.2133 main 321 321 P________PO___ IO071953 15.8925 91.2150 -1 15.8925 91.2150 TC 25 15.9000 91.2000 1 4 298
1953266N16092 1953 58 NI BB NOT_NAMED 1953-09-23 06:00:00 TS 16.0047 90.9957 main 342 342 O________OP___ jtwc_io IO071953 16.0000 91.0000 -1 16.0000 91.0000 TC 25 16.0237 90.9785 1 5 299
1953266N16092 1953 58 NI BB NOT_NAMED 1953-09-23 09:00:00 TS 16.1158 90.7906 main 363 363 P________PP___ IO071953 16.1075 90.8000 -1 16.1075 90.8000 TC 25 16.1378 90.7655 1 4 298
1953266N16092 1953 58 NI BB NOT_NAMED 1953-09-23 12:00:00 TS 16.2110 90.5899 main 385 385 O________OP___ jtwc_io IO071953 16.2000 90.6000 -1 16.2000 90.6000 TC 25 16.2330 90.5697 1 4 292
1953266N16092 1953 58 NI BB NOT_NAMED 1953-09-23 15:00:00 TS 16.2717 90.3900 main 407 407 P________PO___ IO071953 16.2575 90.3850 -1 16.2575 90.3850 TC 25 16.3000 90.4000 1 4 286
1953266N16092 1953 58 NI BB NOT_NAMED 1953-09-23 18:00:00 TS 16.3119 90.2199 main 428 428 O________OP___ jtwc_io IO071953 16.3000 90.2000 -1 16.3000 90.2000 TC 25 16.3357 90.2596 1 3 285
1953266N16092 1953 58 NI BB NOT_NAMED 1953-09-23 21:00:00 TS 16.3440 90.1147 main 439 439 P________PP___ IO071953 16.3349 90.1074 -1 16.3349 90.1074 TC 25 16.3621 90.1294 1 2 293
1953266N16092 1953 58 NI BB NOT_NAMED 1953-09-24 00:00:00 TS 16.4025 89.9948 main 450 450 O________OP___ jtwc_io IO071953 16.4000 90.0000 -1 16.4000 90.0000 TC 25 16.4075 89.9845 1 4 299
1953266N16092 1953 58 NI BB NOT_NAMED 1953-09-24 03:00:00 TS 16.5133 89.7916 main 473 473 P________PO___ IO071953 16.5200 89.7874 -1 16.5200 89.7874 TC 25 16.5000 89.8000 1 6 301
1953266N16092 1953 58 NI BB NOT_NAMED 1953-09-24 06:00:00 TS 16.6903 89.5024 main 493 455 O________OP___ jtwc_io IO071953 16.7000 89.5000 -1 16.7000 89.5000 TC 25 16.6710 89.5071 1 7 304
1953266N16092 1953 58 NI BB NOT_NAMED 1953-09-24 09:00:00 TS 16.9253 89.1496 main 448 402 P________PP___ IO071953 16.9426 89.1352 -1 16.9426 89.1352 TC 25 16.8906 89.1783 1 8 307
1953266N16092 1953 58 NI BB NOT_NAMED 1953-09-24 12:00:00 TS 17.1799 88.8201 main 402 371 O________OP___ jtwc_io IO071953 17.2000 88.8000 -1 17.2000 88.8000 TC 25 17.1398 88.8603 1 7 313
1953266N16092 1953 58 NI BB NOT_NAMED 1953-09-24 15:00:00 TS 17.3999 88.6082 main 371 347 P________PO___ IO071953 17.3999 88.6124 -1 17.3999 88.6124 TC 25 17.4000 88.6000 1 5 323
1953266N16092 1953 58 NI BB NOT_NAMED 1953-09-24 18:00:00 TS 17.6128 88.4839 main 347 323 O________OP___ jtwc_io IO071953 17.6000 88.5000 -1 17.6000 88.5000 TC 25 17.6385 88.4518 1 5 334
1953266N16092 1953 58 NI BB NOT_NAMED 1953-09-24 21:00:00 TS 17.8516 88.3740 main 315 291 P________PP___ IO071953 17.8350 88.3775 -1 17.8350 88.3775 TC 25 17.8847 88.3671 1 5 341
1953266N16092 1953 58 NI BB NOT_NAMED 1953-09-25 00:00:00 TS 18.1129 88.3079 main 291 268 O________OP___ jtwc_io IO071953 18.1000 88.3000 -1 18.1000 88.3000 TC 25 18.1386 88.3238 1 6 352
1953266N16092 1953 58 NI BB NOT_NAMED 1953-09-25 03:00:00 TS 18.4000 88.2949 main 268 245 P________PO___ IO071953 18.4000 88.2924 -1 18.4000 88.2924 TC 25 18.4000 88.3000 1 6 0
1953266N16092 1953 58 NI BB NOT_NAMED 1953-09-25 06:00:00 TS 18.6906 88.2855 main 245 221 O________OP___ jtwc_io IO071953 18.7000 88.3000 -1 18.7000 88.3000 TC 25 18.6719 88.2565 1 6 355
1953266N16092 1953 58 NI BB NOT_NAMED 1953-09-25 09:00:00 TS 18.9500 88.2425 main 214 199 P________PP___ IO071953 18.9500 88.2500 -1 18.9500 88.2500 TC 25 18.9500 88.2274 1 5 351
1953266N16092 1953 58 NI BB NOT_NAMED 1953-09-25 12:00:00 TS 19.2094 88.2032 main 199 180 O________OP___ jtwc_io IO071953 19.2000 88.2000 -1 19.2000 88.2000 TC 25 19.2281 88.2096 1 6 355
1953266N16092 1953 58 NI BB NOT_NAMED 1953-09-25 15:00:00 TS 19.5050 88.1950 main 180 160 P________PO___ IO071953 19.5075 88.1925 -1 19.5075 88.1925 TC 25 19.5000 88.2000 1 6 0
1953266N16092 1953 58 NI BB NOT_NAMED 1953-09-25 18:00:00 TS 19.7803 88.2029 main 160 147 O________OP___ jtwc_io IO071953 19.8000 88.2000 -1 19.8000 88.2000 TC 25 19.7409 88.2088 1 5 2
1953266N16092 1953 58 NI BB NOT_NAMED 1953-09-25 21:00:00 TS 19.9925 88.2073 main 147 136 P________PP___ IO071953 20.0000 88.2000 -1 20.0000 88.2000 TC 25 19.9775 88.2220 1 4 0
1953266N16092 1953 58 NI BB NOT_NAMED 1953-09-26 00:00:00 TS 20.2084 88.2081 main 136 123 O________OP___ jtwc_io IO071953 20.2000 88.2000 -1 20.2000 88.2000 TC 25 20.2253 88.2243 1 5 2
1953266N16092 1953 58 NI BB NOT_NAMED 1953-09-26 03:00:00 TS 20.4800 88.2099 main 123 89 P________PO___ IO071953 20.4700 88.2149 -1 20.4700 88.2149 TC 25 20.5000 88.2000 1 6 0
1953266N16092 1953 58 NI BB NOT_NAMED 1953-09-26 06:00:00 TS 20.8165 88.1897 main 89 45 O________OP___ jtwc_io IO071953 20.8000 88.2000 -1 20.8000 88.2000 TC 25 20.8494 88.1692 1 7 354
1953266N16092 1953 58 NI BB NOT_NAMED 1953-09-26 09:00:00 TS 21.2123 88.1216 main 45 15 P________PP___ IO071953 21.2075 88.1300 -1 21.2075 88.1300 TC 25 21.2220 88.1048 1 8 347
1953266N16092 1953 58 NI BB NOT_NAMED 1953-09-26 12:00:00 TS 21.5946 87.9960 main 20 0 O________OP___ jtwc_io IO071953 21.6000 88.0000 -1 21.6000 88.0000 TC 25 21.5837 87.9879 1 7 338
1953266N16092 1953 58 NI BB NOT_NAMED 1953-09-26 15:00:00 TS 21.8916 87.8250 main 0 0 P________PO___ IO071953 21.8874 87.8374 -1 21.8874 87.8374 TC 25 21.9000 87.8000 1 6 323
1953266N16092 1953 58 NI BB NOT_NAMED 1953-09-26 18:00:00 TS 22.1070 87.5860 main 0 0 O________OP___ jtwc_io IO071953 22.1000 87.6000 -1 22.1000 87.6000 TC 25 22.1209 87.5579 1 6 307
1953266N16092 1953 58 NI BB NOT_NAMED 1953-09-26 21:00:00 TS 22.2696 87.2820 main 0 0 P________PP___ IO071953 22.2573 87.3022 -1 22.2573 87.3022 TC 25 22.2943 87.2416 1 7 295
1953266N16092 1953 58 NI BB NOT_NAMED 1953-09-27 00:00:00 TS 22.4152 86.8848 main 0 0 O________OP___ jtwc_io IO071953 22.4000 86.9000 -1 22.4000 86.9000 TC 25 22.4456 86.8545 1 9 291
1953266N16092 1953 58 NI BB NOT_NAMED 1953-09-27 03:00:00 TS 22.5951 86.3867 main 0 0 P________PO___ IO071953 22.5926 86.3800 -1 22.5926 86.3800 TC 25 22.6000 86.4000 1 10 291
1953266N16092 1953 58 NI BB NOT_NAMED 1953-09-27 06:00:00 TS 22.7883 85.8256 main 0 0 O________OP___ jtwc_io IO071953 22.8000 85.8000 -1 22.8000 85.8000 TC 25 22.7650 85.8768 1 11 290
1953266N16092 1953 58 NI BB NOT_NAMED 1953-09-27 09:00:00 TS 22.9752 85.2645 main 0 0 P________PP___ IO071953 22.9923 85.2497 -1 22.9923 85.2497 TC 25 22.9409 85.2939 1 11 291
1953266N16092 1953 58 NI BB NOT_NAMED 1953-09-27 12:00:00 TS 23.1821 84.6963 main 0 0 O________OP___ jtwc_io IO071953 23.2000 84.7000 -1 23.2000 84.7000 TC 25 23.1462 84.6890 1 11 293
1953266N16092 1953 58 NI BB NOT_NAMED 1953-09-27 15:00:00 TS 23.4183 84.1282 main 0 0 P________PO___ IO071953 23.4274 84.1423 -1 23.4274 84.1423 TC 25 23.4000 84.1000 1 12 297
1953266N16092 1953 58 NI BB NOT_NAMED 1953-09-27 18:00:00 TS 23.7063 83.5823 main 0 0 O________OP___ jtwc_io IO071953 23.7000 83.6000 -1 23.7000 83.6000 TC 25 23.7158 83.5557 1 12 303
1953266N16092 1953 58 NI BB NOT_NAMED 1953-09-27 21:00:00 TS 24.0541 83.0734 main 0 0 P________PP___ IO071953 24.0328 83.0906 -1 24.0328 83.0906 TC 25 24.0826 83.0504 1 12 309
1953266N16092 1953 58 NI BB NOT_NAMED 1953-09-28 00:00:00 TS 24.4416 82.5849 main 0 0 O________OP___ jtwc_io IO071953 24.4000 82.6000 -1 24.4000 82.6000 TC 25 24.4832 82.5698 1 12 314
1953266N16092 1953 58 NI BB NOT_NAMED 1953-09-28 03:00:00 NR 24.9000 82.1000 main 0 __________O___ IO071953 -1 TC 24.9000 82.1000 1 13 316

About IBTrACS Database

This database is a web-friendly format of International Best Track Archive for Climate Stewardship (IBTrACS), a global best track data archive curated by NOAA dating back to 1842.

Updated: 2021-10-27